Time;durP1;ratioP1;P1;durP2;ratioP2;P2;SDS_P1;SDS_P2;PMS_P1;PMS_P2;Temp;Humidity;BMP_temperature;BMP_pressure;BME280_temperature;BME280_humidity;BME280_pressure;Samples;Min_cycle;Max_cycle;Signal;HPM_P1;HPM_P2
2021/03/07 00:01:04;;;;;;;6.03;2.40;;;3.90;54.90;;;;;;5043268;28;20180;-88
2021/03/07 00:03:29;;;;;;;3.27;2.80;;;3.80;54.90;;;;;;5039700;28;20170;-84
2021/03/07 00:05:55;;;;;;;3.43;3.13;;;3.80;54.90;;;;;;5047974;28;20599;-88
2021/03/07 00:08:21;;;;;;;4.17;3.50;;;3.80;55.10;;;;;;5023140;28;20281;-88
2021/03/07 00:10:47;;;;;;;5.20;3.33;;;3.70;55.10;;;;;;5042211;28;20184;-88
2021/03/07 00:13:12;;;;;;;4.00;3.30;;;3.70;55.20;;;;;;5025957;28;20619;-87
2021/03/07 00:15:38;;;;;;;4.47;3.33;;;3.70;55.30;;;;;;5058590;28;20692;-87
2021/03/07 00:18:04;;;;;;;6.82;3.63;;;3.60;55.30;;;;;;5041255;28;20614;-87
2021/03/07 00:20:35;;;;;;;4.93;4.13;;;3.60;55.50;;;;;;5042210;28;20174;-87
2021/03/07 00:23:01;;;;;;;3.80;3.30;;;3.50;55.60;;;;;;5041285;28;20185;-87
2021/03/07 00:25:27;;;;;;;6.10;3.70;;;3.50;55.60;;;;;;5023414;28;20185;-87
2021/03/07 00:27:53;;;;;;;3.97;3.47;;;3.50;55.70;;;;;;5040690;28;20190;-87
2021/03/07 00:30:19;;;;;;;8.13;5.97;;;3.40;55.90;;;;;;5057593;28;20650;-87
2021/03/07 00:32:45;;;;;;;8.00;4.38;;;3.40;56.10;;;;;;5041118;28;20209;-87
2021/03/07 00:35:12;;;;;;;7.10;4.25;;;3.30;56.10;;;;;;5040600;28;20177;-87
2021/03/07 00:37:38;;;;;;;7.25;5.60;;;3.30;56.10;;;;;;5038706;28;20181;-87
2021/03/07 00:40:06;;;;;;;11.88;7.85;;;3.30;56.40;;;;;;5038708;28;20173;-86
2021/03/07 00:42:32;;;;;;;12.77;9.15;;;3.30;56.70;;;;;;5055821;28;20170;-87
2021/03/07 00:44:58;;;;;;;13.03;9.33;;;3.20;56.80;;;;;;5039204;28;20202;-87
2021/03/07 00:47:24;;;;;;;15.57;10.30;;;3.20;56.90;;;;;;5038844;28;20264;-86
2021/03/07 00:49:50;;;;;;;14.40;10.85;;;3.20;57.00;;;;;;5037836;28;20245;-87
2021/03/07 00:52:15;;;;;;;13.83;9.97;;;3.10;57.20;;;;;;5054501;28;20205;-87
2021/03/07 00:54:41;;;;;;;18.60;10.60;;;3.10;57.30;;;;;;5018410;28;20196;-87
2021/03/07 00:57:07;;;;;;;15.77;10.40;;;3.00;57.40;;;;;;5052458;28;20181;-87
2021/03/07 00:59:33;;;;;;;13.17;9.77;;;3.00;57.50;;;;;;5033106;28;20588;-87
2021/03/07 01:01:59;;;;;;;13.52;10.77;;;3.00;57.70;;;;;;5033696;28;20170;-86
2021/03/07 01:04:25;;;;;;;14.63;10.73;;;2.90;57.90;;;;;;5032269;28;20172;-87
2021/03/07 01:06:50;;;;;;;13.50;11.80;;;2.90;58.20;;;;;;5025777;28;20561;-87
2021/03/07 01:09:16;;;;;;;13.40;10.13;;;2.80;58.10;;;;;;5007250;28;21264;-86
2021/03/07 01:11:42;;;;;;;13.30;9.93;;;2.80;58.30;;;;;;5023606;28;20165;-86
2021/03/07 01:14:08;;;;;;;13.23;10.80;;;2.80;58.50;;;;;;5049442;28;20674;-86
2021/03/07 01:16:34;;;;;;;13.70;10.43;;;2.80;58.70;;;;;;5049365;28;20166;-86
2021/03/07 01:19:00;;;;;;;10.82;8.80;;;2.70;58.80;;;;;;5050242;28;20596;-86
2021/03/07 01:21:26;;;;;;;18.05;9.88;;;2.70;59.00;;;;;;5051058;28;20657;-86
2021/03/07 01:23:52;;;;;;;12.30;9.33;;;2.70;59.10;;;;;;5029101;28;20182;-86
2021/03/07 01:26:19;;;;;;;14.30;8.93;;;2.70;59.10;;;;;;4993916;28;20185;-87
2021/03/07 01:28:45;;;;;;;9.43;7.25;;;2.60;59.30;;;;;;5024688;28;20687;-87
2021/03/07 01:31:11;;;;;;;11.03;8.03;;;2.60;59.50;;;;;;5013104;28;20212;-87
2021/03/07 01:33:37;;;;;;;11.90;7.30;;;2.60;59.80;;;;;;5030828;28;20632;-87
2021/03/07 01:36:03;;;;;;;10.30;7.83;;;2.60;59.80;;;;;;5014944;28;20607;-87
2021/03/07 01:38:30;;;;;;;8.95;7.60;;;2.50;59.80;;;;;;5029943;28;20178;-88
2021/03/07 01:40:59;;;;;;;8.48;7.03;;;2.50;60.10;;;;;;5031410;28;20210;-87
2021/03/07 01:43:25;;;;;;;8.35;6.20;;;2.50;60.60;;;;;;5028581;28;20164;-88
2021/03/07 01:45:52;;;;;;;6.80;5.82;;;2.50;60.40;;;;;;5027221;28;20177;-86
2021/03/07 01:48:18;;;;;;;5.78;5.18;;;2.40;60.80;;;;;;5026128;28;20193;-87
2021/03/07 01:50:49;;;;;;;6.72;5.38;;;2.40;61.00;;;;;;5024627;28;20261;-86
2021/03/07 01:53:16;;;;;;;9.82;4.53;;;2.40;61.30;;;;;;5025492;28;20193;-86
2021/03/07 01:55:43;;;;;;;5.05;3.67;;;2.40;61.30;;;;;;5043537;28;20172;-87
2021/03/07 01:58:11;;;;;;;4.40;3.50;;;2.40;61.40;;;;;;5025236;28;20248;-87
2021/03/07 02:00:37;;;;;;;5.88;4.30;;;2.40;61.80;;;;;;5043058;28;20181;-87
2021/03/07 02:03:04;;;;;;;6.35;4.28;;;2.40;61.90;;;;;;5010834;28;20173;-86
2021/03/07 02:05:30;;;;;;;5.82;4.03;;;2.30;62.10;;;;;;5045501;28;20166;-87
2021/03/07 02:07:56;;;;;;;5.40;4.88;;;2.30;62.40;;;;;;5005784;28;20213;-86
2021/03/07 02:10:28;;;;;;;5.17;4.00;;;2.30;62.70;;;;;;5023315;28;20227;-85
2021/03/07 02:13:00;;;;;;;6.13;4.13;;;2.20;63.90;;;;;;5038294;28;20612;-85
2021/03/07 02:15:30;;;;;;;5.57;4.10;;;2.20;63.10;;;;;;5020934;28;20169;-86
2021/03/07 02:17:57;;;;;;;5.38;4.07;;;2.20;63.20;;;;;;5024299;28;20192;-85
2021/03/07 02:20:27;;;;;;;7.57;5.20;;;2.20;63.40;;;;;;5039966;28;20721;-86
2021/03/07 02:23:06;;;;;;;6.47;4.75;;;2.10;63.60;;;;;;5038488;28;20197;-85
2021/03/07 02:25:33;;;;;;;4.78;4.00;;;2.10;64.40;;;;;;5038811;28;20172;-85
2021/03/07 02:27:59;;;;;;;5.22;4.72;;;2.10;63.90;;;;;;5020249;28;20185;-85
2021/03/07 02:30:26;;;;;;;5.50;4.72;;;2.10;64.20;;;;;;5022738;28;20170;-85
2021/03/07 02:33:00;;;;;;;7.38;5.47;;;2.10;64.50;;;;;;5040906;28;20224;-86
2021/03/07 02:35:29;;;;;;;7.55;4.82;;;2.10;65.20;;;;;;5040819;28;20524;-86
2021/03/07 02:38:01;;;;;;;6.55;5.35;;;2.00;65.30;;;;;;5044644;28;20197;-85
2021/03/07 02:40:29;;;;;;;5.88;4.65;;;2.00;65.70;;;;;;5020087;28;20170;-86
2021/03/07 02:42:57;;;;;;;7.82;5.35;;;2.00;65.80;;;;;;5039761;28;20197;-86
2021/03/07 02:45:24;;;;;;;5.90;5.30;;;2.00;66.10;;;;;;5006011;28;20268;-85
2021/03/07 02:47:53;;;;;;;10.27;5.15;;;2.00;66.30;;;;;;5005001;28;20261;-84
2021/03/07 02:50:28;;;;;;;6.03;4.68;;;2.00;66.80;;;;;;5041404;28;20177;-84
2021/03/07 02:53:02;;;;;;;7.93;5.13;;;2.00;67.30;;;;;;5042480;28;20228;-85
2021/03/07 02:55:31;;;;;;;12.13;4.97;;;1.90;67.50;;;;;;5031450;28;20199;-87
2021/03/07 02:58:04;;;;;;;6.47;5.35;;;1.90;67.40;;;;;;5031124;28;20205;-86
2021/03/07 03:00:32;;;;;;;8.07;5.00;;;1.90;67.80;;;;;;5021637;28;20170;-86
2021/03/07 03:03:00;;;;;;;6.38;4.90;;;1.90;67.80;;;;;;5038657;28;20170;-85
2021/03/07 03:05:27;;;;;;;7.82;5.82;;;1.80;67.90;;;;;;5014186;28;20240;-85
2021/03/07 03:07:53;;;;;;;6.65;6.00;;;1.80;68.20;;;;;;5037621;28;20216;-85
2021/03/07 03:10:20;;;;;;;7.50;4.80;;;1.80;68.50;;;;;;5035313;28;20166;-85
2021/03/07 03:12:47;;;;;;;5.45;4.70;;;1.80;68.70;;;;;;5031271;28;20647;-85
2021/03/07 03:15:13;;;;;;;9.05;5.10;;;1.80;69.10;;;;;;5049567;28;20178;-85
2021/03/07 03:17:40;;;;;;;7.00;4.40;;;1.80;69.30;;;;;;5049290;28;20182;-85
2021/03/07 03:20:13;;;;;;;6.20;4.93;;;1.70;69.60;;;;;;5046131;28;20165;-85
2021/03/07 03:22:40;;;;;;;5.50;4.60;;;1.70;69.80;;;;;;5028811;28;20170;-85
2021/03/07 03:25:08;;;;;;;5.35;4.85;;;1.70;70.00;;;;;;5046156;28;20180;-84
2021/03/07 03:27:35;;;;;;;4.97;4.43;;;1.80;70.50;;;;;;5045737;28;20190;-85
2021/03/07 03:30:11;;;;;;;6.22;3.95;;;1.80;70.60;;;;;;5028949;28;20165;-85
2021/03/07 03:32:39;;;;;;;5.45;4.70;;;1.80;71.30;;;;;;5047301;28;20200;-85
2021/03/07 03:35:14;;;;;;;6.43;4.30;;;1.80;70.70;;;;;;5049042;28;20169;-85
2021/03/07 03:37:42;;;;;;;4.85;4.22;;;1.80;71.40;;;;;;5021420;28;20192;-86
2021/03/07 03:40:10;;;;;;;6.25;4.00;;;1.80;70.90;;;;;;5018815;28;20193;-86
2021/03/07 03:42:40;;;;;;;5.95;4.97;;;1.80;71.10;;;;;;5019020;28;20259;-86
2021/03/07 03:45:10;;;;;;;4.75;4.25;;;1.80;71.40;;;;;;5019151;28;20162;-85
2021/03/07 03:47:42;;;;;;;5.13;4.60;;;1.80;71.40;;;;;;5037440;28;20186;-85
2021/03/07 03:50:10;;;;;;;5.00;4.18;;;1.80;71.40;;;;;;5037060;28;20220;-85
2021/03/07 03:52:37;;;;;;;9.43;5.13;;;1.80;71.60;;;;;;5017386;28;20276;-85
2021/03/07 03:55:08;;;;;;;6.22;5.50;;;1.80;71.70;;;;;;5001649;28;20231;-85
2021/03/07 03:57:36;;;;;;;5.82;4.70;;;1.80;72.40;;;;;;5001952;28;20194;-85
2021/03/07 04:00:08;;;;;;;5.15;4.40;;;1.80;72.10;;;;;;5018094;28;20158;-86
2021/03/07 04:02:36;;;;;;;6.53;5.22;;;1.90;72.80;;;;;;5037158;28;20583;-85
2021/03/07 04:05:05;;;;;;;5.43;4.93;;;1.90;72.40;;;;;;5036924;28;20684;-86
2021/03/07 04:07:32;;;;;;;4.75;4.00;;;1.90;72.70;;;;;;5035936;28;20252;-86
2021/03/07 04:10:00;;;;;;;5.57;4.63;;;1.90;72.30;;;;;;5057730;23;20211;-82
2021/03/07 04:12:30;;;;;;;4.60;4.15;;;1.90;72.80;;;;;;5061112;28;20229;-82
2021/03/07 04:14:57;;;;;;;6.78;5.63;;;1.90;72.60;;;;;;5075903;28;20176;-81
2021/03/07 04:17:25;;;;;;;8.15;4.85;;;1.80;72.80;;;;;;5059561;28;20187;-81
2021/03/07 04:19:52;;;;;;;5.18;4.28;;;1.80;72.80;;;;;;5059594;28;20184;-82
2021/03/07 04:22:20;;;;;;;5.47;4.45;;;1.80;72.90;;;;;;5060020;28;20300;-81
2021/03/07 04:24:49;;;;;;;5.75;5.05;;;1.80;73.10;;;;;;5094640;28;20690;-82
2021/03/07 04:27:16;;;;;;;5.95;5.30;;;1.70;72.80;;;;;;5065649;28;20250;-80
2021/03/07 04:29:43;;;;;;;6.05;3.97;;;1.70;73.10;;;;;;5076799;28;20183;-79
2021/03/07 04:32:10;;;;;;;6.13;4.60;;;1.70;73.30;;;;;;5077600;28;20175;-81
2021/03/07 04:34:37;;;;;;;5.95;4.05;;;1.70;73.40;;;;;;5076870;28;20182;-81
2021/03/07 04:37:04;;;;;;;6.28;4.53;;;1.70;73.40;;;;;;5059607;28;20171;-81
2021/03/07 04:39:31;;;;;;;6.03;4.38;;;1.70;73.50;;;;;;5077347;28;20667;-81
2021/03/07 04:41:58;;;;;;;4.80;3.88;;;1.70;73.70;;;;;;5076970;28;20191;-81
2021/03/07 04:44:24;;;;;;;6.57;4.53;;;1.70;73.70;;;;;;5076612;28;20160;-81
2021/03/07 04:46:49;;;;;;;5.82;5.00;;;1.70;73.90;;;;;;5075753;28;20658;-81
2021/03/07 04:49:15;;;;;;;7.40;5.47;;;1.60;73.90;;;;;;5042583;28;20201;-81
2021/03/07 04:51:41;;;;;;;5.80;4.43;;;1.60;74.10;;;;;;5076071;28;20556;-81
2021/03/07 04:54:07;;;;;;;5.13;4.37;;;1.60;74.30;;;;;;5075471;28;20690;-80
2021/03/07 04:56:32;;;;;;;4.70;3.97;;;1.60;74.40;;;;;;5075779;28;20569;-81
2021/03/07 04:58:58;;;;;;;4.70;4.30;;;1.50;74.20;;;;;;5075899;28;20167;-81
2021/03/07 05:01:24;;;;;;;5.20;4.25;;;1.50;74.40;;;;;;5075263;28;20590;-81
2021/03/07 05:03:53;;;;;;;5.57;4.40;;;1.50;74.40;;;;;;5077645;28;20182;-81
2021/03/07 05:06:23;;;;;;;4.50;4.10;;;1.50;74.70;;;;;;5078037;28;21160;-80
2021/03/07 05:08:49;;;;;;;5.18;4.68;;;1.40;75.10;;;;;;5075692;28;20217;-81
2021/03/07 05:11:15;;;;;;;5.80;5.20;;;1.40;75.40;;;;;;5059262;28;20175;-81
2021/03/07 05:13:41;;;;;;;5.67;5.17;;;1.40;75.30;;;;;;5096312;28;20637;-81
2021/03/07 05:16:08;;;;;;;6.40;5.70;;;1.40;75.40;;;;;;5098671;28;21182;-81
2021/03/07 05:18:35;;;;;;;5.25;4.25;;;1.40;75.50;;;;;;5093292;28;20501;-81
2021/03/07 05:21:01;;;;;;;6.20;5.35;;;1.40;75.60;;;;;;5074993;28;20188;-80
2021/03/07 05:23:27;;;;;;;6.07;5.07;;;1.40;75.90;;;;;;5093252;28;20212;-80
2021/03/07 05:25:53;;;;;;;9.52;6.00;;;1.40;75.70;;;;;;5093440;28;20179;-81
2021/03/07 05:28:22;;;;;;;7.20;5.70;;;1.40;76.40;;;;;;5041413;28;20175;-80
2021/03/07 05:30:47;;;;;;;8.63;5.85;;;1.40;77.90;;;;;;5041247;28;20283;-82
2021/03/07 05:33:16;;;;;;;6.80;5.50;;;1.30;79.60;;;;;;5058464;28;20294;-82
2021/03/07 05:35:42;;;;;;;8.05;5.40;;;1.40;79.30;;;;;;5074667;28;20667;-81
2021/03/07 05:38:09;;;;;;;11.30;8.10;;;1.40;78.60;;;;;;5074711;28;20199;-82
2021/03/07 05:40:35;;;;;;;7.45;5.65;;;1.40;82.40;;;;;;5041439;28;20188;-81
2021/03/07 05:43:04;;;;;;;7.28;5.70;;;1.40;81.20;;;;;;5098078;28;20203;-81
2021/03/07 05:45:30;;;;;;;7.68;6.50;;;1.40;80.80;;;;;;5074586;28;20242;-81
2021/03/07 05:47:55;;;;;;;9.50;5.70;;;1.40;79.80;;;;;;5074310;28;20195;-82
2021/03/07 05:50:22;;;;;;;7.22;5.75;;;1.40;79.90;;;;;;5057727;28;20634;-81
2021/03/07 05:52:48;;;;;;;10.38;9.35;;;1.40;80.20;;;;;;5074248;28;20202;-82
2021/03/07 05:55:15;;;;;;;11.18;6.90;;;1.40;82.60;;;;;;5092603;28;20160;-80
2021/03/07 05:57:45;;;;;;;8.43;7.47;;;1.40;81.70;;;;;;5074370;28;20167;-81
2021/03/07 06:00:14;;;;;;;8.93;7.90;;;1.40;82.70;;;;;;5057294;28;20659;-81
2021/03/07 06:02:43;;;;;;;8.65;6.65;;;1.40;82.90;;;;;;5058530;28;20195;-81
2021/03/07 06:05:10;;;;;;;10.47;6.40;;;1.40;81.60;;;;;;5057706;28;20199;-81
2021/03/07 06:07:36;;;;;;;7.15;6.45;;;1.40;82.00;;;;;;5092349;28;20255;-81
2021/03/07 06:10:24;;;;;;;9.85;6.13;;;1.40;81.70;;;;;;5073872;28;20204;-81
2021/03/07 06:13:10;;;;;;;7.55;6.20;;;1.40;83.60;;;;;;5092228;28;20209;-81
2021/03/07 06:15:41;;;;;;;6.78;6.00;;;1.40;83.30;;;;;;5040859;28;20175;-82
2021/03/07 06:18:20;;;;;;;7.20;5.85;;;1.40;82.80;;;;;;5075652;28;20180;-82
2021/03/07 06:20:54;;;;;;;6.97;5.32;;;1.40;82.90;;;;;;5058880;28;20199;-82
2021/03/07 06:23:36;;;;;;;9.75;6.65;;;1.50;83.30;;;;;;5092113;28;20220;-79
2021/03/07 06:26:09;;;;;;;9.48;6.45;;;1.40;84.40;;;;;;5076046;28;20176;-80
2021/03/07 06:28:35;;;;;;;7.00;5.72;;;1.40;83.80;;;;;;5093299;28;20182;-81
2021/03/07 06:31:01;;;;;;;6.60;5.10;;;1.40;83.10;;;;;;5091944;28;20192;-81
2021/03/07 06:33:37;;;;;;;6.63;5.43;;;1.40;83.10;;;;;;5059051;28;20199;-81
2021/03/07 06:36:24;;;;;;;7.25;5.40;;;1.40;83.50;;;;;;5062491;28;20240;-81
2021/03/07 06:38:54;;;;;;;8.63;6.28;;;1.40;84.80;;;;;;5070542;28;20175;-80
2021/03/07 06:41:22;;;;;;;6.07;5.05;;;1.40;83.80;;;;;;5048253;28;20169;-80
2021/03/07 06:43:50;;;;;;;6.55;5.85;;;1.50;83.80;;;;;;5091925;28;20202;-81
2021/03/07 06:46:46;;;;;;;6.97;6.28;;;1.50;84.10;;;;;;5091924;28;20638;-81
2021/03/07 06:49:28;;;;;;;6.32;5.68;;;1.50;86.20;;;;;;5060219;28;20203;-81
2021/03/07 06:52:17;;;;;;;6.45;5.57;;;1.60;85.30;;;;;;5093627;28;20170;-81
2021/03/07 06:55:00;;;;;;;7.25;6.65;;;1.60;86.10;;;;;;5094042;28;20519;-82
2021/03/07 06:57:27;;;;;;;8.57;5.65;;;1.60;84.70;;;;;;5098218;28;20175;-80
2021/03/07 06:59:53;;;;;;;7.65;5.35;;;1.70;85.20;;;;;;5097708;28;20213;-80
2021/03/07 07:02:19;;;;;;;7.47;6.57;;;1.70;85.10;;;;;;5105168;28;20187;-81
2021/03/07 07:04:45;;;;;;;6.70;6.00;;;1.70;85.30;;;;;;5126843;28;20197;-83
2021/03/07 07:07:16;;;;;;;7.10;6.37;;;1.80;85.70;;;;;;5094883;28;20209;-81
2021/03/07 07:09:45;;;;;;;6.95;5.95;;;1.80;86.60;;;;;;5086543;28;20612;-82
2021/03/07 07:12:23;;;;;;;8.43;6.35;;;1.80;85.90;;;;;;5109658;28;20167;-80
2021/03/07 07:14:50;;;;;;;9.60;5.57;;;1.90;87.10;;;;;;5108609;28;20182;-81
2021/03/07 07:17:18;;;;;;;7.20;6.03;;;1.90;86.30;;;;;;5111863;28;20163;-81
2021/03/07 07:19:47;;;;;;;8.52;7.63;;;2.00;86.90;;;;;;5128446;28;20187;-80
2021/03/07 07:22:15;;;;;;;8.43;6.40;;;2.00;88.90;;;;;;5090026;28;20172;-80
2021/03/07 07:24:42;;;;;;;8.10;6.30;;;2.00;88.40;;;;;;5067376;28;20175;-80
2021/03/07 07:27:08;;;;;;;7.80;6.82;;;2.00;88.40;;;;;;5080323;28;20174;-80
2021/03/07 07:29:35;;;;;;;7.78;6.95;;;2.10;88.00;;;;;;5079928;28;20190;-81
2021/03/07 07:32:22;;;;;;;8.02;6.07;;;2.10;88.20;;;;;;5069464;28;20184;-81
2021/03/07 07:34:51;;;;;;;12.02;7.00;;;2.20;88.60;;;;;;5091863;28;20214;-81
2021/03/07 07:37:26;;;;;;;8.80;7.85;;;2.30;88.60;;;;;;5094497;28;20217;-80
2021/03/07 07:39:54;;;;;;;7.97;7.22;;;2.40;89.60;;;;;;5085771;28;20195;-81
2021/03/07 07:42:24;;;;;;;8.43;7.68;;;2.50;89.00;;;;;;5102854;28;20159;-80
2021/03/07 07:44:55;;;;;;;7.25;6.57;;;2.60;89.20;;;;;;5081331;28;20304;-80
2021/03/07 07:47:21;;;;;;;11.60;7.35;;;2.70;88.90;;;;;;5091910;28;20172;-80
2021/03/07 07:49:48;;;;;;;6.25;5.65;;;2.80;88.70;;;;;;5104446;28;20208;-80
2021/03/07 07:52:21;;;;;;;7.63;6.93;;;2.90;88.80;;;;;;5090356;28;20223;-81
2021/03/07 07:54:54;;;;;;;8.52;7.00;;;3.00;89.10;;;;;;5093423;28;20228;-81
2021/03/07 07:57:32;;;;;;;10.05;6.55;;;3.10;88.90;;;;;;5092517;28;20164;-82
2021/03/07 08:00:00;;;;;;;7.38;6.68;;;3.20;89.20;;;;;;5114022;28;20190;-82
2021/03/07 08:02:44;;;;;;;9.95;6.95;;;3.40;88.90;;;;;;5067175;28;20232;-81
2021/03/07 08:05:20;;;;;;;7.82;6.45;;;3.50;89.30;;;;;;5093966;28;20869;-82
2021/03/07 08:08:05;;;;;;;12.57;9.10;;;3.60;89.00;;;;;;5090239;28;20212;-83
2021/03/07 08:10:36;;;;;;;7.30;6.20;;;4.00;89.70;;;;;;5104310;28;20210;-82
2021/03/07 08:13:23;;;;;;;10.68;7.40;;;4.70;91.00;;;;;;5088712;28;20218;-82
2021/03/07 08:15:50;;;;;;;9.63;7.00;;;5.60;92.10;;;;;;5055693;28;20178;-82
2021/03/07 08:18:42;;;;;;;7.88;6.05;;;6.80;93.50;;;;;;5075766;28;20159;-82
2021/03/07 08:21:08;;;;;;;7.05;6.45;;;8.00;94.20;;;;;;5089116;28;20663;-81
2021/03/07 08:23:57;;;;;;;10.27;7.10;;;9.50;94.80;;;;;;5053497;28;20168;-82
2021/03/07 08:26:25;;;;;;;7.40;6.60;;;10.80;93.30;;;;;;5065649;28;20582;-82
2021/03/07 08:28:51;;;;;;;6.67;5.50;;;12.10;93.40;;;;;;5077314;28;20645;-83
2021/03/07 08:31:22;;;;;;;7.70;7.00;;;13.30;92.60;;;;;;5058680;28;20610;-83
2021/03/07 08:33:48;;;;;;;9.38;8.57;;;14.40;91.30;;;;;;5102427;28;21096;-81
2021/03/07 08:36:21;;;;;;;8.07;7.33;;;15.30;74.70;;;;;;5071302;28;20171;-82
2021/03/07 08:38:53;;;;;;;6.40;5.80;;;16.40;79.60;;;;;;5095473;28;20163;-82
2021/03/07 08:41:32;;;;;;;7.20;6.57;;;17.40;80.40;;;;;;5096052;28;20572;-81
2021/03/07 08:43:59;;;;;;;5.97;5.40;;;18.40;79.30;;;;;;5096071;28;20625;-82
2021/03/07 08:46:45;;;;;;;5.80;5.27;;;19.40;78.00;;;;;;5079017;28;20565;-81
2021/03/07 08:49:12;;;;;;;7.90;6.30;;;20.30;75.90;;;;;;5096365;28;20617;-81
2021/03/07 08:51:44;;;;;;;6.87;6.20;;;20.90;73.40;;;;;;5095662;28;20974;-81
2021/03/07 08:54:15;;;;;;;6.23;5.63;;;21.60;71.20;;;;;;5095810;28;20612;-81
2021/03/07 08:56:42;;;;;;;6.50;6.00;;;22.10;68.70;;;;;;5062110;28;20980;-82
2021/03/07 08:59:11;;;;;;;8.53;5.00;;;22.50;66.20;;;;;;5095112;28;20565;-82
2021/03/07 09:01:37;;;;;;;6.07;5.40;;;23.00;64.30;;;;;;5061476;28;20572;-81
2021/03/07 09:04:06;;;;;;;5.50;5.00;;;23.30;62.30;;;;;;5061892;28;20970;-82
2021/03/07 09:06:40;;;;;;;4.97;4.53;;;23.80;60.50;;;;;;5069564;28;20936;-80
2021/03/07 09:09:19;;;;;;;5.70;5.30;;;24.20;59.50;;;;;;5077187;28;20581;-81
2021/03/07 09:12:04;;;;;;;5.27;4.77;;;24.50;58.70;;;;;;5078379;28;21031;-81
2021/03/07 09:14:30;;;;;;;5.73;5.07;;;24.90;57.30;;;;;;5078216;28;20655;-82
2021/03/07 09:16:56;;;;;;;5.83;5.37;;;25.10;56.60;;;;;;5094892;28;20556;-81
2021/03/07 09:19:28;;;;;;;6.20;5.60;;;25.40;55.60;;;;;;5077767;28;20224;-81
2021/03/07 09:22:21;;;;;;;6.37;5.00;;;25.50;53.80;;;;;;5078095;28;20616;-81
2021/03/07 09:24:52;;;;;;;6.10;5.50;;;25.80;53.30;;;;;;5083614;28;20580;-81
2021/03/07 09:27:19;;;;;;;6.70;6.00;;;25.90;52.10;;;;;;5095014;28;20584;-82
2021/03/07 09:30:06;;;;;;;6.10;5.50;;;25.90;50.50;;;;;;5077691;28;20649;-81
2021/03/07 09:32:37;;;;;;;5.97;5.47;;;25.90;49.80;;;;;;5061313;28;20622;-81
2021/03/07 09:35:25;;;;;;;6.00;5.40;;;25.80;48.80;;;;;;5071572;28;20985;-82
2021/03/07 09:37:56;;;;;;;5.93;5.00;;;25.90;48.50;;;;;;5054980;28;20597;-82
2021/03/07 09:40:23;;;;;;;7.10;5.33;;;26.00;48.00;;;;;;5074474;28;20589;-80
2021/03/07 09:42:59;;;;;;;5.50;5.10;;;26.00;48.10;;;;;;5041076;28;20700;-81
2021/03/07 09:45:26;;;;;;;5.93;5.07;;;26.10;47.30;;;;;;5057652;28;20665;-81
2021/03/07 09:47:53;;;;;;;5.30;4.80;;;26.20;46.60;;;;;;5066055;28;20605;-82
2021/03/07 09:50:22;;;;;;;5.53;5.03;;;26.20;46.00;;;;;;5078032;28;20605;-82
2021/03/07 09:52:48;;;;;;;6.40;5.10;;;26.20;45.50;;;;;;5077607;28;20581;-81
2021/03/07 09:55:24;;;;;;;5.40;4.93;;;26.10;45.30;;;;;;5061037;28;21151;-81
2021/03/07 09:58:01;;;;;;;5.70;4.67;;;26.20;44.00;;;;;;5077685;28;20571;-81
2021/03/07 10:00:29;;;;;;;5.70;4.53;;;26.20;43.20;;;;;;5077577;28;21163;-81
2021/03/07 10:02:55;;;;;;;5.20;4.80;;;26.10;43.10;;;;;;5099744;28;20631;-82
2021/03/07 10:05:21;;;;;;;5.37;4.97;;;26.00;43.40;;;;;;5060930;28;20583;-82
2021/03/07 10:07:47;;;;;;;6.40;4.30;;;26.00;43.40;;;;;;5077111;28;20602;-80
2021/03/07 10:10:21;;;;;;;5.10;4.70;;;26.00;43.30;;;;;;5066080;23;20683;-79
2021/03/07 10:12:54;;;;;;;4.23;3.83;;;26.00;42.00;;;;;;5083288;28;20259;-79
2021/03/07 10:15:30;;;;;;;6.83;4.00;;;26.10;42.10;;;;;;5064704;28;20593;-79
2021/03/07 10:18:01;;;;;;;5.03;4.63;;;26.00;41.10;;;;;;5069090;28;21018;-78
2021/03/07 10:20:35;;;;;;;4.80;4.10;;;25.80;39.80;;;;;;5060264;28;20607;-78
2021/03/07 10:23:01;;;;;;;5.10;4.63;;;25.70;39.80;;;;;;5047596;28;20625;-78
2021/03/07 10:25:29;;;;;;;4.97;4.43;;;25.50;39.60;;;;;;5047117;28;20585;-78
2021/03/07 10:27:57;;;;;;;3.43;3.13;;;25.30;38.70;;;;;;5061096;28;20567;-78
2021/03/07 10:30:37;;;;;;;3.60;3.30;;;25.20;39.40;;;;;;5053337;28;20629;-78
2021/03/07 10:33:17;;;;;;;4.00;3.53;;;25.00;39.30;;;;;;5045343;28;21023;-78
2021/03/07 10:36:05;;;;;;;4.30;4.00;;;24.90;39.60;;;;;;5074216;28;21142;-78
2021/03/07 10:38:34;;;;;;;3.90;3.50;;;24.60;39.50;;;;;;5053010;28;20581;-79
2021/03/07 10:41:31;;;;;;;4.33;3.93;;;24.50;39.80;;;;;;5070079;28;20694;-80
2021/03/07 10:44:07;;;;;;;4.50;4.10;;;24.20;39.50;;;;;;5071442;28;20618;-80
2021/03/07 10:46:35;;;;;;;5.13;4.60;;;24.00;38.90;;;;;;5070148;28;20571;-80
2021/03/07 10:49:06;;;;;;;4.93;4.50;;;23.60;37.60;;;;;;5074073;28;20588;-80
2021/03/07 10:51:32;;;;;;;4.40;4.00;;;23.30;37.80;;;;;;5053610;28;20602;-80
2021/03/07 10:53:58;;;;;;;4.60;4.20;;;22.90;37.80;;;;;;5053593;28;20578;-78
2021/03/07 10:56:31;;;;;;;5.07;4.67;;;22.60;37.90;;;;;;5036829;28;20670;-80
2021/03/07 10:58:58;;;;;;;3.83;3.53;;;22.40;38.00;;;;;;5019768;28;20790;-79
2021/03/07 11:01:24;;;;;;;5.20;4.70;;;22.20;38.30;;;;;;5036600;28;21471;-79
2021/03/07 11:03:50;;;;;;;4.83;4.33;;;22.10;37.90;;;;;;5053654;28;20622;-80
2021/03/07 11:06:18;;;;;;;6.47;5.87;;;22.10;38.40;;;;;;5092922;28;20565;-82
2021/03/07 11:08:45;;;;;;;6.80;6.20;;;21.90;37.30;;;;;;5057155;28;21167;-81
2021/03/07 11:11:11;;;;;;;6.30;5.50;;;21.60;36.50;;;;;;5074341;28;20713;-80
2021/03/07 11:13:36;;;;;;;7.17;6.47;;;21.40;36.80;;;;;;5074622;28;20594;-82
2021/03/07 11:16:03;;;;;;;6.10;5.33;;;21.20;37.10;;;;;;5059007;28;20171;-81
2021/03/07 11:18:29;;;;;;;5.80;5.10;;;21.10;37.60;;;;;;5092576;28;20655;-81
2021/03/07 11:20:55;;;;;;;6.57;5.23;;;21.10;37.60;;;;;;5074489;28;20632;-81
2021/03/07 11:23:22;;;;;;;5.87;5.27;;;21.00;38.00;;;;;;5091260;28;20621;-81
2021/03/07 11:25:48;;;;;;;4.77;4.20;;;21.00;38.10;;;;;;5076477;28;20677;-80
2021/03/07 11:28:14;;;;;;;5.10;3.90;;;21.00;37.70;;;;;;5079429;28;20629;-80
2021/03/07 11:30:40;;;;;;;5.40;4.53;;;20.90;38.00;;;;;;5076655;28;20594;-80
2021/03/07 11:33:06;;;;;;;4.97;4.50;;;20.80;37.90;;;;;;5094868;28;21043;-81
2021/03/07 11:35:33;;;;;;;5.70;4.93;;;20.80;37.60;;;;;;5076536;28;20669;-81
2021/03/07 11:37:59;;;;;;;6.30;5.33;;;20.60;37.30;;;;;;5081864;28;20594;-79
2021/03/07 11:40:28;;;;;;;5.13;4.60;;;20.30;36.80;;;;;;5081268;28;20614;-80
2021/03/07 11:42:55;;;;;;;5.33;4.83;;;20.10;36.70;;;;;;5073733;28;20634;-80
2021/03/07 11:45:21;;;;;;;5.33;4.93;;;19.90;36.80;;;;;;5066070;28;20574;-80
2021/03/07 11:47:48;;;;;;;4.90;4.40;;;19.70;36.70;;;;;;5074199;28;20945;-80
2021/03/07 11:50:15;;;;;;;5.07;4.37;;;19.60;37.20;;;;;;5074031;28;21169;-81
2021/03/07 11:52:41;;;;;;;4.90;4.50;;;19.40;37.10;;;;;;5074147;28;20575;-81
2021/03/07 11:55:08;;;;;;;4.80;4.03;;;19.30;37.10;;;;;;5074037;28;20567;-81
2021/03/07 11:57:38;;;;;;;4.73;3.90;;;19.10;36.60;;;;;;5074090;28;20358;-80
2021/03/07 12:00:06;;;;;;;3.67;3.37;;;18.90;36.90;;;;;;5073838;28;20718;-81
2021/03/07 12:02:37;;;;;;;3.60;3.30;;;18.70;37.40;;;;;;5089251;28;20667;-80
2021/03/07 12:05:07;;;;;;;5.17;4.77;;;18.70;37.70;;;;;;5095447;28;21164;-81
2021/03/07 12:07:33;;;;;;;6.23;4.77;;;18.50;37.80;;;;;;5073621;28;20572;-80
2021/03/07 12:09:59;;;;;;;5.50;5.00;;;18.50;38.40;;;;;;5072331;28;20697;-81
2021/03/07 12:12:26;;;;;;;4.43;3.73;;;18.40;38.30;;;;;;5074213;28;20164;-81
2021/03/07 12:14:52;;;;;;;6.73;4.70;;;18.30;38.60;;;;;;5072631;28;20665;-80
2021/03/07 12:17:20;;;;;;;6.23;5.33;;;18.20;38.70;;;;;;5073739;28;20167;-81
2021/03/07 12:19:46;;;;;;;5.63;5.13;;;18.20;38.90;;;;;;5073556;28;20187;-80
2021/03/07 12:22:12;;;;;;;5.60;5.00;;;18.10;38.80;;;;;;5073708;28;20586;-80
2021/03/07 12:24:37;;;;;;;5.03;4.63;;;17.90;38.70;;;;;;5073631;28;20188;-81
2021/03/07 12:27:07;;;;;;;5.60;4.90;;;17.80;38.50;;;;;;5072390;28;20497;-81
2021/03/07 12:29:36;;;;;;;5.63;5.03;;;17.60;38.50;;;;;;5088834;28;20566;-79
2021/03/07 12:32:06;;;;;;;5.77;5.27;;;17.50;38.70;;;;;;5072464;28;20574;-80
2021/03/07 12:34:33;;;;;;;6.20;5.60;;;17.40;38.90;;;;;;5073369;28;20963;-80
2021/03/07 12:36:59;;;;;;;5.57;5.07;;;17.30;38.70;;;;;;5072768;28;20623;-81
2021/03/07 12:39:25;;;;;;;4.77;4.23;;;17.10;38.80;;;;;;5071929;28;21334;-81
2021/03/07 12:41:52;;;;;;;4.97;4.40;;;16.90;38.70;;;;;;5077308;28;20598;-81
2021/03/07 12:44:20;;;;;;;4.67;4.27;;;16.70;38.60;;;;;;5073468;28;20671;-81
2021/03/07 12:46:48;;;;;;;4.93;3.80;;;16.60;38.70;;;;;;5072127;28;20590;-81
2021/03/07 12:49:14;;;;;;;4.87;4.43;;;16.40;38.50;;;;;;5092204;28;20574;-80
2021/03/07 12:51:40;;;;;;;5.10;4.70;;;16.30;38.70;;;;;;5071771;28;20598;-80
2021/03/07 12:54:06;;;;;;;4.90;4.50;;;16.10;38.80;;;;;;5073251;28;20168;-81
2021/03/07 12:56:34;;;;;;;5.77;4.60;;;15.90;38.90;;;;;;5073047;28;20632;-80
2021/03/07 12:59:00;;;;;;;4.80;4.10;;;15.70;38.70;;;;;;5072749;28;20160;-80
2021/03/07 13:01:26;;;;;;;4.50;3.80;;;15.40;38.40;;;;;;5054822;28;20595;-80
2021/03/07 13:03:52;;;;;;;5.30;4.90;;;15.20;38.30;;;;;;5072846;28;20668;-80